Portada
METAR-TAF:

METAR-TAF

Aeropuertos :

Gagetown, Nuevo Brunswick, Canadá

latitud: 45-50N, longitud: 066-26W, altitud: 51 m

Observación

El informe se hizo hace 20 minutos, a las 20:00 UTC
Viento 4 kt del oeste-suroeste
Temperatura -6°C
Humedad 45%
Presión 1017 hPa
Visibilidad: 24.1 km
Cielo nuboso a una altura de 20000 ft

METAR: CYCX 112000Z 25004KT 15SM BKN200 M06/M16 A3003 RMK CI6 DA-2557FT SLP174

Hora: 16:20 (20:20 UTC)

Pronóstico

El informe se hizo hace 26 horas y 50 minutos, a las 17:30 UTC
Pronóstico válido del 10 a las 18 UTC al 11 a las 06 UTC
Viento 10 kt del oeste-noroeste
Visibilidad: 10 km
Escasas nubes a una altura de 3000 ft

TAF: CYCX 101730Z 1018/1106 30010KT P6SM FEW030 RMK NXT FCST BY 110000Z

Observaciones y pronósticos meteorológicos de más de 4000 aeropuertos (mensajes METAR y TAF).

Los puntos amarillos y rojos representan las estaciones disponibles.

Ponga el ratón en el punto deseado para ver el nombre de la estación.

Haga clic para ver las observaciones y los pronósticos meteorológicos.

Para cambiar el mapa : haga clic en los botones verdes con una cruz de color negro para hacer un zoom, en el botón verde con un guión para alejar o en las flechas verdes para mapas adyacentes.


METAR-TAF: